Time;durP1;ratioP1;P1;durP2;ratioP2;P2;SDS_P1;SDS_P2;PMS_P1;PMS_P2;Temp;Humidity;BMP_temperature;BMP_pressure;BME280_temperature;BME280_humidity;BME280_pressure;Samples;Min_cycle;Max_cycle;Signal;HPM_P1;HPM_P2
2023/03/08 00:02:14;;;;;;;61.22;55.95;;;;;;;5.79;100.00;100228.69;5075954;28;20513;-77
2023/03/08 00:04:41;;;;;;;59.72;55.45;;;;;;;5.85;100.00;100226.13;5071698;28;20110;-77
2023/03/08 00:07:07;;;;;;;60.65;56.10;;;;;;;5.66;100.00;100216.19;5071602;28;20472;-77
2023/03/08 00:09:37;;;;;;;53.00;49.25;;;;;;;5.81;100.00;100216.13;5075408;28;20055;-77
2023/03/08 00:12:04;;;;;;;48.78;45.00;;;;;;;5.65;100.00;100217.97;5087354;28;20102;-79
2023/03/08 00:14:30;;;;;;;63.17;58.42;;;;;;;5.46;100.00;100216.75;5083239;28;20049;-77
2023/03/08 00:16:57;;;;;;;68.22;62.20;;;;;;;5.48;100.00;100220.03;5075115;28;20056;-76
2023/03/08 00:19:24;;;;;;;68.00;62.65;;;;;;;5.67;100.00;100212.53;5075431;28;20487;-76
2023/03/08 00:21:51;;;;;;;58.58;53.70;;;;;;;5.55;100.00;100222.75;5075351;28;20471;-77
2023/03/08 00:24:18;;;;;;;60.30;54.83;;;;;;;5.40;100.00;100221.97;5075144;28;20044;-76
2023/03/08 00:26:46;;;;;;;52.72;47.72;;;;;;;5.22;100.00;100217.88;5075396;28;20425;-76
2023/03/08 00:29:13;;;;;;;56.88;52.00;;;;;;;5.06;100.00;100225.97;5075151;28;20479;-76
2023/03/08 00:31:40;;;;;;;71.03;65.07;;;;;;;4.73;100.00;100228.13;5075276;28;20049;-76
2023/03/08 00:34:06;;;;;;;84.35;77.85;;;;;;;4.88;100.00;100225.53;5075290;28;20476;-76
2023/03/08 00:36:33;;;;;;;65.70;60.42;;;;;;;4.85;100.00;100220.63;5074874;28;20052;-77
2023/03/08 00:39:00;;;;;;;69.82;64.53;;;;;;;4.88;100.00;100220.25;5075122;28;20053;-77
2023/03/08 00:41:27;;;;;;;60.33;55.63;;;;;;;4.73;100.00;100217.59;5075069;28;20098;-76
2023/03/08 00:43:55;;;;;;;62.00;56.60;;;;;;;4.16;100.00;100221.56;5074738;28;20051;-76
2023/03/08 00:46:21;;;;;;;64.55;59.40;;;;;;;4.51;100.00;100227.19;5075007;28;20102;-77
2023/03/08 00:48:48;;;;;;;57.80;53.00;;;;;;;4.59;100.00;100232.38;5074703;28;20048;-77
2023/03/08 00:51:17;;;;;;;58.28;53.10;;;;;;;4.08;100.00;100225.03;5075096;28;20066;-76
2023/03/08 00:53:44;;;;;;;55.97;51.10;;;;;;;4.39;100.00;100226.81;5074682;28;20106;-76
2023/03/08 00:56:11;;;;;;;54.30;49.67;;;;;;;4.31;100.00;100226.84;5074812;28;20113;-77
2023/03/08 00:58:40;;;;;;;46.38;42.20;;;;;;;3.94;100.00;100228.44;5074732;28;20110;-76
2023/03/08 01:01:09;;;;;;;49.95;45.70;;;;;;;4.11;100.00;100222.09;5074576;28;20051;-77
2023/03/08 01:03:35;;;;;;;54.85;49.95;;;;;;;4.24;100.00;100232.00;5074580;28;20052;-76
2023/03/08 01:06:08;;;;;;;48.92;44.63;;;;;;;4.18;100.00;100231.91;5074110;28;20495;-76
2023/03/08 01:08:34;;;;;;;61.70;56.33;;;;;;;4.13;100.00;100224.53;5074530;28;20110;-76
2023/03/08 01:11:01;;;;;;;48.85;44.33;;;;;;;4.06;100.00;100223.59;5074354;28;20497;-77
2023/03/08 01:13:31;;;;;;;55.53;50.38;;;;;;;4.45;100.00;100222.63;5074259;28;20044;-77
2023/03/08 01:15:58;;;;;;;66.88;61.83;;;;;;;4.42;100.00;100225.59;5074278;28;20111;-77
2023/03/08 01:18:27;;;;;;;55.17;50.65;;;;;;;3.97;100.00;100222.84;5074276;28;20113;-76
2023/03/08 01:20:58;;;;;;;58.38;53.53;;;;;;;3.85;100.00;100227.69;5073824;28;20476;-77
2023/03/08 01:23:25;;;;;;;46.13;41.85;;;;;;;3.50;100.00;100225.56;5074269;28;20094;-76
2023/03/08 01:25:59;;;;;;;46.30;41.75;;;;;;;3.79;100.00;100228.38;5074317;28;20428;-76
2023/03/08 01:28:26;;;;;;;57.75;53.33;;;;;;;4.20;100.00;100227.25;5074020;28;20135;-76
2023/03/08 01:30:52;;;;;;;88.85;82.35;;;;;;;4.25;100.00;100224.94;5074073;28;20107;-76
2023/03/08 01:33:19;;;;;;;68.35;63.05;;;;;;;4.20;100.00;100227.25;5074268;28;20048;-76
2023/03/08 01:35:47;;;;;;;67.65;62.85;;;;;;;4.24;100.00;100226.75;5073717;28;20045;-77
2023/03/08 01:38:14;;;;;;;56.40;52.10;;;;;;;4.42;100.00;100222.97;5073606;28;20044;-77
2023/03/08 01:40:41;;;;;;;59.25;54.75;;;;;;;4.20;100.00;100227.25;5073728;28;20113;-77
2023/03/08 01:43:21;;;;;;;55.17;50.67;;;;;;;4.29;100.00;100221.75;5073588;28;20497;-77
2023/03/08 01:46:05;;;;;;;60.67;56.35;;;;;;;4.45;100.00;100220.00;5086486;28;20071;-79
2023/03/08 01:48:35;;;;;;;59.47;55.45;;;;;;;4.34;100.00;100210.72;5074435;28;20056;-77
2023/03/08 01:51:07;;;;;;;58.42;54.13;;;;;;;4.28;100.00;100211.44;5073754;28;20084;-76
2023/03/08 01:53:37;;;;;;;52.97;48.58;;;;;;;4.12;100.00;100209.75;5073401;28;20044;-76
2023/03/08 01:56:06;;;;;;;53.75;49.58;;;;;;;4.15;100.00;100219.13;5073592;28;20425;-76
2023/03/08 01:58:34;;;;;;;64.57;59.65;;;;;;;3.79;100.00;100211.81;5073336;28;20044;-76
2023/03/08 02:01:00;;;;;;;55.72;51.35;;;;;;;3.99;100.00;100212.16;5073404;28;20459;-76
2023/03/08 02:03:27;;;;;;;62.85;58.00;;;;;;;3.51;100.00;100204.41;5073167;28;20102;-76
2023/03/08 02:05:54;;;;;;;51.80;47.90;;;;;;;3.35;100.00;100210.53;5073131;28;20056;-76
2023/03/08 02:08:22;;;;;;;56.35;51.58;;;;;;;3.26;100.00;100208.94;5073304;28;20060;-76
2023/03/08 02:10:50;;;;;;;64.10;57.28;;;;;;;3.82;100.00;100206.19;5072947;28;20056;-76
2023/03/08 02:13:20;;;;;;;53.83;48.78;;;;;;;3.62;100.00;100206.63;5072914;28;20045;-76
2023/03/08 02:15:46;;;;;;;46.03;41.90;;;;;;;4.10;100.00;100206.47;5073153;28;20056;-76
2023/03/08 02:18:13;;;;;;;57.03;52.58;;;;;;;3.50;100.00;100200.13;5073134;28;20045;-76
2023/03/08 02:20:41;;;;;;;64.20;59.30;;;;;;;3.58;100.00;100205.34;5073099;28;20090;-77
2023/03/08 02:23:11;;;;;;;53.90;49.17;;;;;;;3.57;100.00;100208.97;5073099;28;20127;-76
2023/03/08 02:25:38;;;;;;;49.10;44.55;;;;;;;3.58;100.00;100204.53;5072912;28;20049;-77
2023/03/08 02:28:05;;;;;;;49.10;44.90;;;;;;;3.43;100.00;100209.69;5073003;28;20106;-76
2023/03/08 02:30:34;;;;;;;62.17;57.05;;;;;;;3.34;100.00;100203.66;5072222;28;20048;-76
2023/03/08 02:33:01;;;;;;;54.28;49.75;;;;;;;3.28;100.00;100206.97;5073111;28;20048;-76
2023/03/08 02:35:29;;;;;;;62.47;57.28;;;;;;;3.14;100.00;100205.03;5072891;28;20097;-76
2023/03/08 02:37:55;;;;;;;55.55;50.85;;;;;;;2.98;100.00;100213.81;5072845;28;20052;-76
2023/03/08 02:40:24;;;;;;;54.67;49.63;;;;;;;3.07;100.00;100206.72;5072832;28;20052;-76
2023/03/08 02:42:50;;;;;;;68.90;64.05;;;;;;;3.02;100.00;100207.22;5072766;28;20051;-76
2023/03/08 02:45:17;;;;;;;76.85;71.05;;;;;;;2.88;100.00;100207.94;5072777;28;20479;-76
2023/03/08 02:47:44;;;;;;;62.40;57.25;;;;;;;2.87;100.00;100207.09;5072768;28;20109;-76
2023/03/08 02:50:11;;;;;;;62.45;57.38;;;;;;;3.02;100.00;100215.09;5072303;28;20106;-76
2023/03/08 02:52:38;;;;;;;62.38;57.60;;;;;;;3.09;100.00;100204.75;5072294;28;20052;-76
2023/03/08 02:55:05;;;;;;;50.22;45.85;;;;;;;2.84;100.00;100206.63;5072533;28;20113;-77
2023/03/08 02:57:33;;;;;;;59.25;54.15;;;;;;;2.99;100.00;100215.44;5072677;28;20048;-76
2023/03/08 03:00:00;;;;;;;52.55;48.15;;;;;;;2.91;100.00;100212.84;5072511;28;20048;-76
2023/03/08 03:02:27;;;;;;;53.42;48.90;;;;;;;2.63;100.00;100209.78;5072451;28;20048;-76
2023/03/08 03:04:53;;;;;;;49.97;45.13;;;;;;;2.65;100.00;100208.63;5072102;28;20052;-76
2023/03/08 03:07:20;;;;;;;59.45;54.47;;;;;;;2.55;100.00;100207.19;5072731;28;20105;-76
2023/03/08 03:09:47;;;;;;;54.58;49.80;;;;;;;2.72;100.00;100209.63;5072434;28;20480;-76
2023/03/08 03:12:14;;;;;;;45.15;40.90;;;;;;;2.57;100.00;100215.69;5072394;28;20045;-76
2023/03/08 03:14:42;;;;;;;60.58;55.28;;;;;;;2.75;100.00;100217.16;5072011;28;20565;-76
2023/03/08 03:17:08;;;;;;;61.45;56.15;;;;;;;2.69;100.00;100222.22;5072476;28;20394;-76
2023/03/08 03:19:37;;;;;;;64.22;58.47;;;;;;;2.91;100.00;100215.47;5071968;28;20052;-76
2023/03/08 03:22:04;;;;;;;55.55;50.60;;;;;;;2.81;100.00;100220.88;5072026;28;20490;-77
2023/03/08 03:24:31;;;;;;;59.35;54.03;;;;;;;2.61;100.00;100220.44;5072082;28;20048;-77
2023/03/08 03:26:57;;;;;;;51.00;45.85;;;;;;;2.81;100.00;100226.13;5072226;28;20052;-76
2023/03/08 03:29:24;;;;;;;63.03;57.35;;;;;;;2.73;100.00;100226.97;5072324;28;20094;-76
2023/03/08 03:31:52;;;;;;;58.85;54.08;;;;;;;3.20;100.00;100223.56;5071985;28;20053;-76
2023/03/08 03:34:19;;;;;;;50.85;46.75;;;;;;;2.81;100.00;100231.38;5071923;28;20048;-77
2023/03/08 03:36:45;;;;;;;59.78;55.08;;;;;;;2.63;100.00;100233.38;5072234;28;20045;-77
2023/03/08 03:39:12;;;;;;;54.75;49.90;;;;;;;2.52;100.00;100234.53;5072214;28;20048;-76
2023/03/08 03:41:39;;;;;;;43.67;39.10;;;;;;;2.36;100.00;100237.16;5071771;28;20514;-76
2023/03/08 03:44:06;;;;;;;51.03;46.13;;;;;;;2.23;100.00;100237.66;5076080;28;20052;-76
2023/03/08 03:46:32;;;;;;;43.72;39.25;;;;;;;2.22;100.00;100249.94;5076107;28;20123;-76
2023/03/08 03:49:00;;;;;;;41.95;37.63;;;;;;;2.20;100.00;100249.28;5076032;28;20102;-76
2023/03/08 03:51:27;;;;;;;46.67;41.80;;;;;;;2.48;100.00;100252.41;5075705;28;20044;-77
2023/03/08 03:53:54;;;;;;;43.95;39.35;;;;;;;2.27;100.00;100245.03;5075954;28;20049;-76
2023/03/08 03:56:23;;;;;;;49.58;44.83;;;;;;;2.31;100.00;100250.75;5076001;28;20114;-76
2023/03/08 03:58:50;;;;;;;52.63;47.30;;;;;;;2.57;100.00;100252.38;5060593;28;20099;-76
2023/03/08 04:01:20;;;;;;;55.30;49.67;;;;;;;2.43;100.00;100252.06;5055750;28;20095;-76
2023/03/08 04:03:46;;;;;;;47.15;42.78;;;;;;;2.68;100.00;100259.94;5056296;28;20053;-76
2023/03/08 04:06:17;;;;;;;50.92;46.03;;;;;;;2.49;100.00;100261.91;5055697;28;20045;-77
2023/03/08 04:08:44;;;;;;;52.90;47.97;;;;;;;2.52;100.00;100266.81;5055370;28;20049;-76
2023/03/08 04:11:12;;;;;;;42.42;38.17;;;;;;;2.65;100.00;100262.88;5055703;28;20048;-77
2023/03/08 04:13:40;;;;;;;43.28;38.67;;;;;;;2.56;100.00;100267.31;5055564;28;20041;-77
2023/03/08 04:16:11;;;;;;;42.63;38.28;;;;;;;2.48;100.00;100260.28;5055468;28;20469;-77
2023/03/08 04:18:38;;;;;;;46.90;42.30;;;;;;;2.63;100.00;100270.94;5055438;28;20399;-76
2023/03/08 04:21:05;;;;;;;43.70;39.10;;;;;;;2.62;100.00;100266.66;5055160;28;20049;-76
2023/03/08 04:23:33;;;;;;;41.63;37.63;;;;;;;2.47;100.00;100270.91;5055435;28;20048;-76
2023/03/08 04:26:01;;;;;;;40.53;36.47;;;;;;;2.26;100.00;100276.63;5055384;28;20099;-76
2023/03/08 04:28:28;;;;;;;43.05;38.28;;;;;;;2.48;100.00;100272.53;5055357;28;20048;-76
2023/03/08 04:30:56;;;;;;;47.63;42.60;;;;;;;2.58;100.00;100267.16;5054865;28;20055;-76
2023/03/08 04:33:23;;;;;;;46.88;42.03;;;;;;;2.50;100.00;100270.59;5054817;28;20545;-76
2023/03/08 04:35:50;;;;;;;44.03;39.53;;;;;;;2.18;100.00;100266.97;5055135;28;20103;-77
2023/03/08 04:38:17;;;;;;;46.92;42.28;;;;;;;2.45;100.00;100273.72;5054867;28;20498;-76
2023/03/08 04:41:04;;;;;;;41.60;37.45;;;;;;;2.46;100.00;100271.91;5055025;28;20056;-76
2023/03/08 04:43:31;;;;;;;41.78;37.97;;;;;;;2.21;100.00;100271.91;5055476;28;20053;-76
2023/03/08 04:45:58;;;;;;;43.38;39.15;;;;;;;2.11;100.00;100271.22;5055001;28;20131;-76
2023/03/08 04:48:24;;;;;;;35.75;32.20;;;;;;;1.97;100.00;100269.25;5054617;28;20555;-76
2023/03/08 04:50:53;;;;;;;36.38;32.78;;;;;;;2.14;100.00;100275.31;5055173;28;20102;-76
2023/03/08 04:53:20;;;;;;;36.28;32.58;;;;;;;2.11;100.00;100275.63;5054710;28;20139;-76
2023/03/08 04:55:48;;;;;;;35.83;29.25;;;;;;;1.89;100.00;100277.88;5053913;28;20078;-77
2023/03/08 04:58:15;;;;;;;42.67;33.75;;;;;;;1.90;100.00;100287.38;5054687;28;20500;-76
2023/03/08 05:00:42;;;;;;;57.25;38.78;;;;;;;1.88;100.00;100293.78;5072969;28;20464;-76
2023/03/08 05:03:09;;;;;;;70.22;45.50;;;;;;;1.88;100.00;100289.34;5054598;28;20118;-76
2023/03/08 05:05:35;;;;;;;61.78;45.75;;;;;;;1.77;100.00;100300.94;5054195;28;20095;-76
2023/03/08 05:08:04;;;;;;;58.78;46.17;;;;;;;1.83;100.00;100292.44;5054787;28;20114;-76
2023/03/08 05:10:30;;;;;;;50.85;44.20;;;;;;;1.77;100.00;100300.94;5054301;28;20048;-77
2023/03/08 05:12:59;;;;;;;48.90;40.13;;;;;;;1.90;100.00;100297.03;5054650;28;20049;-76
2023/03/08 05:15:26;;;;;;;55.50;45.42;;;;;;;2.00;100.00;100306.41;5054263;28;20041;-76
2023/03/08 05:17:53;;;;;;;48.53;35.65;;;;;;;2.18;100.00;100306.28;5053948;28;20106;-76
2023/03/08 05:20:19;;;;;;;112.35;60.55;;;;;;;2.37;100.00;100302.53;5054373;28;20049;-76
2023/03/08 05:22:46;;;;;;;162.30;80.38;;;;;;;2.43;100.00;100316.78;5054281;28;20045;-76
2023/03/08 05:25:13;;;;;;;137.07;69.85;;;;;;;2.57;100.00;100317.94;5054553;28;20469;-77
2023/03/08 05:27:40;;;;;;;48.50;38.75;;;;;;;3.28;100.00;100321.66;5053981;28;20571;-76
2023/03/08 05:30:09;;;;;;;43.03;35.55;;;;;;;3.44;100.00;100322.41;5054178;28;20048;-77
2023/03/08 05:32:36;;;;;;;41.63;34.70;;;;;;;3.55;100.00;100331.75;5054144;28;20480;-76
2023/03/08 05:35:02;;;;;;;37.58;33.28;;;;;;;3.93;100.00;100329.28;5054043;28;20049;-76
2023/03/08 05:37:29;;;;;;;37.97;32.92;;;;;;;3.92;100.00;100342.59;5054022;28;20107;-76
2023/03/08 05:39:56;;;;;;;38.47;34.72;;;;;;;4.35;100.00;100330.69;5054002;28;20052;-76
2023/03/08 05:42:23;;;;;;;39.47;35.63;;;;;;;4.54;100.00;100342.56;5053567;28;20057;-76
2023/03/08 05:44:50;;;;;;;39.10;34.92;;;;;;;4.80;100.00;100340.38;5053813;28;20048;-77
2023/03/08 05:47:18;;;;;;;37.25;33.42;;;;;;;4.99;100.00;100336.44;5053807;28;20107;-76
2023/03/08 05:49:45;;;;;;;37.72;34.28;;;;;;;5.31;100.00;100342.38;5053737;28;20048;-76
2023/03/08 05:52:11;;;;;;;37.95;34.35;;;;;;;5.54;100.00;100337.03;5054231;28;20472;-76
2023/03/08 05:54:38;;;;;;;38.05;34.25;;;;;;;5.83;100.00;100338.81;5053519;28;20049;-76
2023/03/08 05:57:05;;;;;;;40.20;36.05;;;;;;;6.13;100.00;100339.59;5053612;28;20049;-76
2023/03/08 05:59:32;;;;;;;45.47;35.45;;;;;;;6.36;100.00;100339.47;5053510;28;20049;-77
2023/03/08 06:01:59;;;;;;;36.97;32.97;;;;;;;6.75;100.00;100340.84;5053467;28;20468;-77
2023/03/08 06:04:27;;;;;;;39.47;35.03;;;;;;;7.02;100.00;100346.31;5053101;28;20106;-76
2023/03/08 06:06:54;;;;;;;41.72;37.28;;;;;;;7.21;100.00;100350.13;5052263;28;20144;-77
2023/03/08 06:09:20;;;;;;;41.72;37.13;;;;;;;7.38;100.00;100358.56;5053206;28;20045;-77
2023/03/08 06:11:47;;;;;;;43.70;38.95;;;;;;;7.60;100.00;100354.84;5053451;28;20049;-76
2023/03/08 06:14:14;;;;;;;44.78;39.95;;;;;;;7.56;100.00;100356.22;5053400;28;20053;-77
2023/03/08 06:16:40;;;;;;;44.45;39.13;;;;;;;8.11;100.00;100362.41;5052979;28;20045;-77
2023/03/08 06:19:07;;;;;;;37.80;34.25;;;;;;;8.64;100.00;100362.56;5053227;28;20051;-77
2023/03/08 06:21:35;;;;;;;41.08;36.85;;;;;;;8.70;100.00;100364.41;5053106;28;20099;-77
2023/03/08 06:24:02;;;;;;;41.97;37.78;;;;;;;8.75;100.00;100370.94;5056193;28;20094;-79
2023/03/08 06:26:29;;;;;;;38.80;34.67;;;;;;;9.14;100.00;100370.13;5066123;28;20071;-79
2023/03/08 06:28:55;;;;;;;37.92;34.15;;;;;;;9.37;100.00;100373.16;5065927;28;20048;-79
2023/03/08 06:31:22;;;;;;;36.55;32.97;;;;;;;9.81;100.00;100379.59;5066378;28;20110;-79
2023/03/08 06:33:49;;;;;;;34.08;30.77;;;;;;;9.85;100.00;100367.53;5067133;28;20060;-79
2023/03/08 06:36:18;;;;;;;34.65;31.52;;;;;;;10.15;100.00;100367.00;5066021;28;20049;-79
2023/03/08 06:38:47;;;;;;;35.88;31.60;;;;;;;10.24;100.00;100375.53;5066791;28;20075;-79
2023/03/08 06:41:16;;;;;;;52.50;38.80;;;;;;;10.18;100.00;100381.69;5066121;28;20053;-79
2023/03/08 06:43:43;;;;;;;60.17;41.50;;;;;;;10.04;100.00;100380.94;5066480;28;20041;-79
2023/03/08 06:46:12;;;;;;;58.63;41.50;;;;;;;10.53;100.00;100384.81;5067215;28;20067;-79
2023/03/08 06:48:40;;;;;;;55.67;40.35;;;;;;;10.54;100.00;100394.41;5067453;28;20045;-79
2023/03/08 06:51:06;;;;;;;26.50;24.10;;;;;;;10.64;100.00;100381.47;5067226;28;20106;-79
2023/03/08 06:53:34;;;;;;;21.05;19.42;;;;;;;11.04;100.00;100388.34;5066604;28;20053;-79
2023/03/08 06:56:03;;;;;;;22.52;20.48;;;;;;;10.84;100.00;100394.63;5066822;28;20059;-79
2023/03/08 06:58:30;;;;;;;24.35;20.35;;;;;;;11.35;100.00;100393.59;5067343;28;20048;-79
2023/03/08 07:00:58;;;;;;;24.45;22.45;;;;;;;10.98;100.00;100398.81;5066622;28;20083;-79
2023/03/08 07:03:25;;;;;;;23.33;21.67;;;;;;;11.26;100.00;100391.44;5067036;28;20065;-79
2023/03/08 07:05:52;;;;;;;23.05;21.42;;;;;;;11.93;100.00;100399.59;5066480;28;20072;-79
2023/03/08 07:08:19;;;;;;;23.23;21.45;;;;;;;11.27;100.00;100403.69;5066098;28;20052;-79
2023/03/08 07:10:46;;;;;;;23.83;22.02;;;;;;;11.77;100.00;100400.94;5067477;28;20053;-79
2023/03/08 07:13:14;;;;;;;22.58;20.88;;;;;;;11.95;100.00;100408.97;5066686;28;20075;-79
2023/03/08 07:15:41;;;;;;;23.00;21.30;;;;;;;12.37;100.00;100404.56;5066415;28;20049;-79
2023/03/08 07:18:07;;;;;;;23.30;21.70;;;;;;;12.11;100.00;100412.88;5066530;28;20053;-79
2023/03/08 07:20:34;;;;;;;24.20;22.52;;;;;;;12.23;100.00;100410.28;5067928;28;20124;-79
2023/03/08 07:23:01;;;;;;;25.05;23.15;;;;;;;12.12;100.00;100422.50;5066958;28;20091;-79
2023/03/08 07:25:28;;;;;;;25.90;24.00;;;;;;;12.06;100.00;100410.06;5066294;28;20064;-79
2023/03/08 07:27:55;;;;;;;27.48;25.42;;;;;;;11.31;100.00;100408.34;5066589;28;20048;-79
2023/03/08 07:30:23;;;;;;;27.77;25.75;;;;;;;11.56;100.00;100411.00;5066111;28;20049;-79
2023/03/08 07:32:52;;;;;;;24.88;23.30;;;;;;;11.72;100.00;100428.22;5066051;28;20053;-79
2023/03/08 07:35:19;;;;;;;24.20;22.38;;;;;;;12.86;100.00;100420.50;5066300;28;20045;-79
2023/03/08 07:37:47;;;;;;;25.02;23.40;;;;;;;11.71;100.00;100421.28;5066963;28;20075;-79
2023/03/08 07:40:15;;;;;;;22.92;21.42;;;;;;;12.32;100.00;100420.41;5066533;28;20052;-79
2023/03/08 07:42:42;;;;;;;22.45;20.90;;;;;;;12.80;100.00;100414.22;5066532;28;20053;-79
2023/03/08 07:45:11;;;;;;;23.83;21.85;;;;;;;11.77;100.00;100428.38;5067280;28;20045;-79
2023/03/08 07:47:40;;;;;;;23.90;22.27;;;;;;;13.06;100.00;100423.66;5066792;28;20048;-79
2023/03/08 07:50:07;;;;;;;23.40;21.55;;;;;;;12.69;100.00;100424.84;5067093;28;20080;-79
2023/03/08 07:52:34;;;;;;;23.55;21.85;;;;;;;12.50;100.00;100422.22;5066898;28;20072;-79
2023/03/08 07:55:02;;;;;;;24.48;22.65;;;;;;;13.37;99.33;100429.75;5066300;28;20045;-79
2023/03/08 07:57:28;;;;;;;24.40;22.55;;;;;;;13.67;97.25;100428.81;5066857;28;20084;-79
2023/03/08 07:59:55;;;;;;;24.38;22.77;;;;;;;13.64;91.33;100424.75;5067284;28;20056;-79
2023/03/08 08:02:22;;;;;;;24.92;23.02;;;;;;;13.27;94.59;100421.50;5066509;28;20102;-79
2023/03/08 08:04:50;;;;;;;24.88;23.00;;;;;;;13.61;91.92;100435.91;5066343;28;20045;-79
2023/03/08 08:07:17;;;;;;;26.00;23.88;;;;;;;14.44;85.68;100431.22;5066622;28;20558;-79
2023/03/08 08:09:44;;;;;;;25.65;23.63;;;;;;;14.30;82.69;100436.03;5066686;28;20056;-79
2023/03/08 08:12:11;;;;;;;24.92;23.13;;;;;;;14.00;80.58;100424.72;5066910;28;20075;-79
2023/03/08 08:14:37;;;;;;;25.48;23.60;;;;;;;13.41;93.29;100430.13;5066664;28;20041;-79
2023/03/08 08:17:04;;;;;;;21.95;20.50;;;;;;;14.04;90.15;100440.06;5066510;28;20045;-79
2023/03/08 08:19:31;;;;;;;22.25;20.67;;;;;;;14.52;83.30;100430.84;5066605;28;20053;-79
2023/03/08 08:22:00;;;;;;;22.30;20.60;;;;;;;14.66;77.22;100423.38;5067528;28;20045;-79
2023/03/08 08:24:27;;;;;;;23.58;21.67;;;;;;;14.52;81.04;100430.84;5068237;28;20075;-79
2023/03/08 08:26:54;;;;;;;24.25;22.33;;;;;;;14.28;82.09;100426.63;5066730;28;20049;-79
2023/03/08 08:29:21;;;;;;;23.67;21.80;;;;;;;14.81;77.34;100445.03;5067850;28;20075;-79
2023/03/08 08:31:48;;;;;;;21.85;20.15;;;;;;;13.91;80.63;100432.28;5070973;28;20080;-79
2023/03/08 08:34:14;;;;;;;23.00;21.25;;;;;;;15.11;77.48;100423.34;5069817;28;20048;-80
2023/03/08 08:36:41;;;;;;;25.05;22.98;;;;;;;13.99;83.94;100434.59;5072252;28;20045;-79
2023/03/08 08:39:09;;;;;;;25.08;22.80;;;;;;;15.09;81.13;100432.66;5071017;28;20045;-79
2023/03/08 08:41:36;;;;;;;25.55;23.55;;;;;;;15.72;78.04;100431.50;5070638;28;20045;-79
2023/03/08 08:44:03;;;;;;;22.88;21.00;;;;;;;15.88;73.14;100423.69;5071622;28;20053;-79
2023/03/08 08:46:33;;;;;;;24.73;22.88;;;;;;;14.95;75.10;100432.19;5071593;28;20107;-79
2023/03/08 08:48:59;;;;;;;25.83;23.75;;;;;;;15.03;78.08;100433.63;5070076;28;20048;-80
2023/03/08 08:51:27;;;;;;;24.00;22.17;;;;;;;14.63;80.29;100424.66;5070519;28;20524;-79
2023/03/08 08:53:54;;;;;;;26.60;24.33;;;;;;;14.57;82.14;100430.97;5070472;28;20053;-79
2023/03/08 08:56:24;;;;;;;25.20;23.35;;;;;;;15.23;80.45;100422.47;5070552;28;20076;-80
2023/03/08 08:58:51;;;;;;;25.27;23.40;;;;;;;14.85;87.96;100429.31;5070437;28;20083;-79
2023/03/08 09:01:20;;;;;;;23.92;21.83;;;;;;;14.65;80.96;100437.78;5070625;28;20049;-79
2023/03/08 09:03:47;;;;;;;26.15;23.83;;;;;;;13.22;98.26;100434.69;5070055;28;20083;-79
2023/03/08 09:06:15;;;;;;;22.33;20.65;;;;;;;14.06;89.94;100429.91;5070561;28;20122;-79
2023/03/08 09:08:42;;;;;;;25.20;23.20;;;;;;;15.60;86.80;100430.78;5069821;28;20045;-79
2023/03/08 09:11:10;;;;;;;24.05;22.25;;;;;;;14.71;91.45;100426.13;5070230;28;20075;-79
2023/03/08 09:13:40;;;;;;;24.20;22.38;;;;;;;13.60;94.12;100434.28;5069776;28;20140;-79
2023/03/08 09:16:07;;;;;;;23.85;22.08;;;;;;;14.97;89.65;100427.38;5069616;28;20071;-79
2023/03/08 09:18:34;;;;;;;24.67;22.77;;;;;;;15.38;90.57;100435.25;5070600;28;20045;-79
2023/03/08 09:21:01;;;;;;;23.73;22.13;;;;;;;14.46;89.20;100439.78;5070387;28;20049;-79
2023/03/08 09:23:28;;;;;;;23.20;21.30;;;;;;;15.24;92.37;100426.75;5069849;28;20068;-79
2023/03/08 09:25:56;;;;;;;22.35;20.33;;;;;;;15.19;80.15;100426.66;5069931;28;20049;-79
2023/03/08 09:28:23;;;;;;;21.98;20.38;;;;;;;14.52;85.11;100438.06;5069613;28;20055;-79
2023/03/08 09:30:52;;;;;;;22.88;21.13;;;;;;;13.61;87.68;100433.22;5069962;28;20080;-79
2023/03/08 09:33:19;;;;;;;23.50;21.77;;;;;;;15.90;86.51;100421.56;5069219;28;20514;-79
2023/03/08 09:35:55;;;;;;;21.90;20.00;;;;;;;16.63;74.33;100424.81;5070530;28;20041;-79
2023/03/08 09:38:22;;;;;;;22.10;20.40;;;;;;;14.82;78.82;100433.28;5069520;28;20033;-79
2023/03/08 09:40:58;;;;;;;24.42;22.58;;;;;;;16.93;69.75;100424.31;5070267;28;20049;-79
2023/03/08 09:43:33;;;;;;;21.60;19.90;;;;;;;15.64;72.69;100426.53;5070176;28;20056;-79
2023/03/08 09:46:03;;;;;;;22.98;20.95;;;;;;;15.56;73.38;100422.44;5070406;28;20045;-79
2023/03/08 09:48:32;;;;;;;23.85;22.35;;;;;;;14.90;75.39;100421.38;5070250;28;20111;-79
2023/03/08 09:51:04;;;;;;;23.40;21.50;;;;;;;15.58;74.65;100412.28;5070017;28;20045;-79
2023/03/08 09:53:34;;;;;;;;;;;;;;;16.09;74.77;100420.19;5070853;28;20048;-79
2023/03/08 09:56:04;;;;;;;24.60;22.88;;;;;;;16.82;71.54;100407.31;5069362;28;19920;-79
2023/03/08 09:58:41;;;;;;;22.38;20.73;;;;;;;14.73;79.96;100404.50;5070449;28;20071;-79
2023/03/08 10:01:23;;;;;;;21.75;19.98;;;;;;;13.13;88.64;100402.22;5068937;28;20072;-79
2023/03/08 10:04:08;;;;;;;22.55;20.83;;;;;;;15.80;81.64;100408.88;5068498;28;20071;-79
2023/03/08 10:06:41;;;;;;;22.95;21.35;;;;;;;17.10;73.51;100413.47;5068634;28;20054;-79
2023/03/08 10:09:30;;;;;;;22.10;20.50;;;;;;;15.84;75.56;100422.56;5069419;28;20071;-79
2023/03/08 10:12:03;;;;;;;23.88;21.98;;;;;;;12.63;93.04;100415.09;5068818;28;20088;-79
2023/03/08 10:14:32;;;;;;;26.30;23.95;;;;;;;16.03;80.41;100422.00;5068135;28;20056;-79
2023/03/08 10:17:05;;;;;;;24.65;22.65;;;;;;;15.76;73.17;100421.09;5068465;28;20045;-79
2023/03/08 10:19:39;;;;;;;23.25;21.55;;;;;;;15.99;71.18;100426.25;5068580;28;20103;-79
2023/03/08 10:22:15;;;;;;;24.55;22.75;;;;;;;15.31;76.82;100420.19;5068297;28;20052;-79
2023/03/08 10:24:45;;;;;;;23.92;22.13;;;;;;;15.00;75.29;100420.75;5069535;28;20048;-79
2023/03/08 10:27:18;;;;;;;22.33;20.77;;;;;;;15.06;74.62;100404.53;5068823;28;20055;-79
2023/03/08 10:29:49;;;;;;;23.08;20.98;;;;;;;13.74;86.44;100425.00;5068063;28;20116;-79
2023/03/08 10:32:18;;;;;;;23.10;21.30;;;;;;;12.81;94.46;100420.34;5068163;28;20071;-79
2023/03/08 10:34:45;;;;;;;22.30;20.60;;;;;;;12.78;98.99;100423.47;5067887;28;20049;-79
2023/03/08 10:37:11;;;;;;;26.67;24.25;;;;;;;12.73;97.93;100426.81;5067478;28;20067;-79
2023/03/08 10:39:51;;;;;;;22.65;20.73;;;;;;;14.77;86.27;100419.84;5067676;28;20502;-79
2023/03/08 10:42:21;;;;;;;22.60;20.70;;;;;;;13.22;88.49;100414.19;5068832;28;20566;-79
2023/03/08 10:44:54;;;;;;;21.17;19.58;;;;;;;12.13;100.00;100422.28;5067760;28;20083;-79
2023/03/08 10:47:24;;;;;;;22.13;20.42;;;;;;;13.65;92.89;100418.41;5067085;28;20083;-79
2023/03/08 10:50:11;;;;;;;22.33;20.63;;;;;;;12.76;97.28;100410.38;5067481;28;20044;-79
2023/03/08 10:52:38;;;;;;;20.45;19.08;;;;;;;13.95;86.35;100407.56;5067909;28;20091;-79
2023/03/08 10:55:09;;;;;;;22.23;20.42;;;;;;;13.81;88.11;100416.88;5068175;28;20053;-79
2023/03/08 10:57:37;;;;;;;21.77;20.08;;;;;;;14.03;88.33;100401.03;5068171;28;20076;-79
2023/03/08 11:00:12;;;;;;;23.58;21.73;;;;;;;13.96;86.84;100403.03;5068318;28;20041;-79
2023/03/08 11:02:40;;;;;;;22.08;20.40;;;;;;;14.36;88.35;100402.19;5067650;28;20140;-79
2023/03/08 11:05:18;;;;;;;21.30;19.80;;;;;;;14.19;82.64;100400.31;5067576;28;20111;-79
2023/03/08 11:07:51;;;;;;;24.48;22.77;;;;;;;13.51;91.88;100398.31;5067047;28;20053;-79
2023/03/08 11:10:22;;;;;;;23.70;21.75;;;;;;;13.22;94.52;100384.84;5067207;28;20082;-79
2023/03/08 11:13:00;;;;;;;24.02;22.30;;;;;;;13.41;94.88;100396.25;5067379;28;20057;-79
2023/03/08 11:15:30;;;;;;;21.83;20.23;;;;;;;13.46;88.42;100385.69;5067220;28;20065;-79